Terminal Aerodrome Forecast
Issued by NWS Albuquerque, NM

Current Version | Previous Version | Text Only | Print | Product List | Glossary On
Versions: 1 2 3 4 5 6 7 8 9 10 11 12 13 14
000
FTUS45 KABQ 220500
TAFABQ
TAF
KABQ 220538Z 2206/2306 22008KT P6SM SCT110 BKN200
     FM221000 19005KT P6SM VCSH SCT060 BKN110
     FM221200 15005KT P6SM -SHRA BKN050 OVC100
      TEMPO 2214/2217 6SM RA BR BKN040
     FM221900 15007KT P6SM SCT050 BKN090
     FM230000 19008KT P6SM VCTS SCT060CB BKN100
     FM230200 VRB05KT P6SM SCT080=

USA.gov is the U.S. government's official web portal to all federal, state and local government web resources and services.